Time;durP1;ratioP1;P1;durP2;ratioP2;P2;SDS_P1;SDS_P2;PMS_P1;PMS_P2;Temp;Humidity;BMP_temperature;BMP_pressure;BME280_temperature;BME280_humidity;BME280_pressure;Samples;Min_cycle;Max_cycle;Signal;HPM_P1;HPM_P2
2022/05/07 00:00:22;;;;;;;15.33;9.40;;;12.40;99.90;;;;;;5037531;28;20177;-78
2022/05/07 00:02:49;;;;;;;11.90;8.50;;;12.30;99.90;;;;;;5038190;28;20590;-78
2022/05/07 00:05:15;;;;;;;15.40;9.33;;;12.30;99.90;;;;;;5037989;28;20649;-78
2022/05/07 00:07:40;;;;;;;16.50;9.20;;;12.20;99.90;;;;;;5038186;28;20768;-78
2022/05/07 00:10:07;;;;;;;14.17;9.17;;;12.30;99.90;;;;;;5037997;28;20293;-76
2022/05/07 00:12:33;;;;;;;16.23;8.77;;;12.40;99.90;;;;;;5037126;28;20584;-78
2022/05/07 00:14:58;;;;;;;17.37;9.63;;;12.30;99.90;;;;;;5036994;28;20171;-78
2022/05/07 00:20:09;;;;;;;21.67;8.97;;;12.20;99.90;;;;;;5056001;28;20210;-78
2022/05/07 00:22:35;;;;;;;21.53;9.80;;;12.20;99.90;;;;;;5037122;28;20174;-77
2022/05/07 00:25:01;;;;;;;14.63;8.73;;;12.30;99.90;;;;;;5037321;28;20248;-78
2022/05/07 00:27:27;;;;;;;15.77;9.20;;;12.10;99.90;;;;;;5037610;28;20277;-77
2022/05/07 00:29:52;;;;;;;17.60;8.80;;;12.10;99.90;;;;;;5036539;28;20290;-79
2022/05/07 00:32:18;;;;;;;12.67;8.67;;;12.50;99.90;;;;;;5036011;28;20229;-78
2022/05/07 00:34:43;;;;;;;15.33;9.03;;;12.20;99.90;;;;;;5036819;28;20171;-79
2022/05/07 00:37:09;;;;;;;16.57;8.40;;;12.10;99.90;;;;;;5036510;28;20189;-77
2022/05/07 00:39:35;;;;;;;15.77;8.80;;;12.00;99.90;;;;;;5036085;28;20177;-77
2022/05/07 00:42:05;;;;;;;13.80;9.73;;;12.00;99.90;;;;;;5035965;28;20182;-78
2022/05/07 00:44:32;;;;;;;15.00;8.87;;;11.90;99.90;;;;;;5037038;28;20175;-78
2022/05/07 00:47:24;;;;;;;16.73;10.23;;;11.80;99.90;;;;;;5036585;28;20188;-76
2022/05/07 00:49:53;;;;;;;14.60;10.13;;;12.00;99.90;;;;;;5036360;28;20212;-77
2022/05/07 00:52:19;;;;;;;14.03;9.60;;;11.90;99.90;;;;;;5035963;28;20171;-79
2022/05/07 00:54:46;;;;;;;16.63;9.37;;;11.80;99.90;;;;;;5036446;28;20173;-77
2022/05/07 00:57:13;;;;;;;17.43;9.70;;;12.00;99.90;;;;;;5036091;28;20607;-77
2022/05/07 00:59:40;;;;;;;16.23;9.00;;;12.00;99.90;;;;;;5036625;28;20176;-75
2022/05/07 01:02:05;;;;;;;14.60;9.77;;;12.10;99.90;;;;;;5035803;28;20177;-78
2022/05/07 01:04:31;;;;;;;15.13;8.30;;;12.10;99.90;;;;;;5036230;28;20180;-78
2022/05/07 01:06:57;;;;;;;12.83;9.20;;;12.00;99.90;;;;;;5036202;28;20288;-79
2022/05/07 01:09:24;;;;;;;16.83;9.83;;;12.00;99.90;;;;;;5036250;28;20252;-79
2022/05/07 01:11:51;;;;;;;12.63;9.10;;;11.80;99.90;;;;;;5035473;28;20169;-77
2022/05/07 01:14:16;;;;;;;19.90;10.47;;;11.60;99.90;;;;;;5036340;28;20171;-77
2022/05/07 01:16:42;;;;;;;17.00;10.17;;;11.50;99.90;;;;;;5036487;28;20744;-78
2022/05/07 01:19:08;;;;;;;19.97;10.63;;;11.50;99.90;;;;;;5035896;28;20657;-77
2022/05/07 01:21:34;;;;;;;18.10;11.03;;;11.60;99.90;;;;;;5036065;28;20188;-76
2022/05/07 01:24:00;;;;;;;18.33;10.60;;;11.50;99.90;;;;;;5035956;28;20661;-77
2022/05/07 01:26:26;;;;;;;14.43;9.33;;;11.40;99.90;;;;;;5036512;28;20209;-78
2022/05/07 01:29:03;;;;;;;18.10;10.50;;;11.40;99.90;;;;;;5035785;28;20208;-78
2022/05/07 01:31:29;;;;;;;17.70;10.33;;;11.20;99.90;;;;;;5036206;28;20778;-77
2022/05/07 01:33:55;;;;;;;16.63;10.47;;;11.30;99.90;;;;;;5036281;28;20255;-78
2022/05/07 01:36:21;;;;;;;17.00;10.90;;;11.30;99.90;;;;;;5035236;28;20275;-79
2022/05/07 01:38:48;;;;;;;16.07;10.17;;;11.20;99.90;;;;;;5035938;28;20209;-79
2022/05/07 01:41:14;;;;;;;19.63;10.17;;;11.30;99.90;;;;;;5035107;28;20197;-79
2022/05/07 01:43:39;;;;;;;14.67;9.80;;;11.20;99.90;;;;;;5035368;28;20275;-79
2022/05/07 01:48:09;;;;;;;13.60;9.50;;;11.40;99.90;;;;;;5036168;28;20203;-78
2022/05/07 01:48:53;;;;;;;18.07;10.50;;;11.50;99.90;;;;;;5053540;28;20215;-79
2022/05/07 01:51:20;;;;;;;16.67;10.47;;;11.40;99.90;;;;;;5035772;28;20262;-79
2022/05/07 01:53:46;;;;;;;21.43;10.33;;;11.20;99.90;;;;;;5036473;28;20176;-79
2022/05/07 01:56:12;;;;;;;18.00;9.87;;;11.10;99.90;;;;;;5036110;28;20595;-78
2022/05/07 01:58:38;;;;;;;18.97;10.83;;;11.10;99.90;;;;;;5035984;28;20199;-76
2022/05/07 02:01:04;;;;;;;16.07;9.80;;;11.00;99.90;;;;;;5035638;28;20172;-78
2022/05/07 02:03:30;;;;;;;15.90;9.57;;;11.00;99.90;;;;;;5036469;28;20175;-78
2022/05/07 02:05:56;;;;;;;15.80;9.67;;;11.20;99.90;;;;;;5036345;28;20179;-77
2022/05/07 02:08:22;;;;;;;15.97;10.47;;;11.30;99.90;;;;;;5035940;28;20202;-77
2022/05/07 02:10:47;;;;;;;16.83;11.27;;;11.10;99.90;;;;;;5036204;28;20175;-78
2022/05/07 02:13:13;;;;;;;20.73;11.00;;;11.10;99.90;;;;;;5036597;28;20179;-78
2022/05/07 02:15:39;;;;;;;18.27;10.50;;;11.10;99.90;;;;;;5036671;28;20188;-79
2022/05/07 02:18:05;;;;;;;19.07;10.83;;;11.00;99.90;;;;;;5035645;28;20218;-77
2022/05/07 02:20:30;;;;;;;18.10;11.10;;;10.90;99.90;;;;;;5036045;28;20598;-78
2022/05/07 02:22:57;;;;;;;25.63;11.80;;;10.80;99.90;;;;;;5035784;28;20176;-78
2022/05/07 02:25:23;;;;;;;23.73;12.90;;;10.80;99.90;;;;;;5036518;28;20223;-80
2022/05/07 02:27:49;;;;;;;18.63;10.83;;;10.90;99.90;;;;;;5053204;28;20195;-80
2022/05/07 02:30:15;;;;;;;19.63;11.40;;;10.80;99.90;;;;;;5035399;28;20222;-76
2022/05/07 02:32:41;;;;;;;22.83;11.73;;;11.00;99.90;;;;;;5036110;28;20180;-76
2022/05/07 02:35:07;;;;;;;21.40;12.03;;;11.00;99.90;;;;;;5035607;28;20685;-78
2022/05/07 02:37:33;;;;;;;19.57;12.03;;;10.70;99.90;;;;;;5037117;28;20246;-78
2022/05/07 02:39:58;;;;;;;19.17;12.53;;;10.80;99.90;;;;;;5036197;28;20180;-78
2022/05/07 02:42:33;;;;;;;19.87;11.90;;;10.80;99.90;;;;;;5036028;28;20544;-78
2022/05/07 02:45:03;;;;;;;21.53;11.30;;;10.70;99.90;;;;;;5036933;28;20174;-77
2022/05/07 02:47:29;;;;;;;19.43;11.60;;;10.80;99.90;;;;;;5035601;28;20195;-78
2022/05/07 02:49:55;;;;;;;19.03;11.73;;;10.90;99.90;;;;;;5036520;28;20201;-79
2022/05/07 02:52:21;;;;;;;18.60;11.47;;;10.70;99.90;;;;;;5036667;28;20534;-78
2022/05/07 02:54:47;;;;;;;18.10;10.97;;;10.70;99.90;;;;;;5036592;28;20211;-77
2022/05/07 02:57:12;;;;;;;18.20;10.97;;;10.70;99.90;;;;;;5036498;28;20268;-79
2022/05/07 02:59:38;;;;;;;17.57;11.90;;;10.60;99.90;;;;;;5036450;28;20167;-79
2022/05/07 03:02:05;;;;;;;21.53;12.20;;;10.60;99.90;;;;;;5036592;28;20180;-78
2022/05/07 03:04:31;;;;;;;17.90;11.63;;;10.50;99.90;;;;;;5036563;28;20223;-79
2022/05/07 03:06:57;;;;;;;18.40;11.07;;;10.60;99.90;;;;;;5036593;28;20193;-78
2022/05/07 03:09:22;;;;;;;17.87;11.77;;;10.90;99.90;;;;;;5036532;28;20206;-79
2022/05/07 03:11:49;;;;;;;22.20;12.97;;;10.80;99.90;;;;;;5036449;28;20168;-78
2022/05/07 03:14:14;;;;;;;19.17;12.67;;;10.60;99.90;;;;;;5036435;28;20638;-79
2022/05/07 03:16:40;;;;;;;21.30;13.07;;;10.50;99.90;;;;;;5054454;28;20326;-80
2022/05/07 03:19:07;;;;;;;20.60;13.10;;;10.40;99.90;;;;;;5036677;28;20180;-78
2022/05/07 03:21:33;;;;;;;24.97;13.10;;;10.40;99.90;;;;;;5036474;28;20176;-79
2022/05/07 03:23:59;;;;;;;25.20;12.63;;;10.40;99.90;;;;;;5036778;28;20206;-78
2022/05/07 03:26:24;;;;;;;22.20;13.80;;;10.50;99.90;;;;;;5036237;28;20262;-78
2022/05/07 03:28:50;;;;;;;19.80;11.97;;;10.40;99.90;;;;;;5036652;28;20209;-78
2022/05/07 03:31:19;;;;;;;20.13;13.13;;;10.30;99.90;;;;;;5035943;28;20175;-79
2022/05/07 03:33:46;;;;;;;19.50;12.30;;;10.30;99.90;;;;;;5035726;28;20168;-79
2022/05/07 03:36:12;;;;;;;23.97;12.73;;;10.40;99.90;;;;;;5038357;28;20266;-78
2022/05/07 03:38:37;;;;;;;25.37;13.27;;;10.30;99.90;;;;;;5040408;28;20213;-78
2022/05/07 03:41:04;;;;;;;22.93;13.63;;;10.10;99.90;;;;;;5040154;28;20188;-79
2022/05/07 03:43:31;;;;;;;24.63;13.07;;;10.30;99.90;;;;;;5039420;28;20206;-79
2022/05/07 03:45:56;;;;;;;19.70;12.27;;;10.10;99.90;;;;;;5039952;28;20185;-79
2022/05/07 03:48:22;;;;;;;21.13;12.83;;;10.30;99.90;;;;;;5040295;28;20206;-78
2022/05/07 03:50:48;;;;;;;19.90;12.47;;;10.20;99.90;;;;;;5039981;28;20182;-78
2022/05/07 03:53:32;;;;;;;23.73;13.97;;;10.20;99.90;;;;;;5039893;28;20171;-78
2022/05/07 03:56:03;;;;;;;23.53;13.87;;;10.30;99.90;;;;;;5040107;28;20252;-78
2022/05/07 03:58:29;;;;;;;22.37;13.93;;;10.40;99.90;;;;;;5040181;28;20179;-78
2022/05/07 04:00:57;;;;;;;22.43;13.03;;;10.40;99.90;;;;;;5039504;28;20539;-79
2022/05/07 04:03:23;;;;;;;20.87;12.17;;;10.50;99.90;;;;;;5040261;28;20625;-79
2022/05/07 04:05:49;;;;;;;23.07;13.30;;;10.40;99.90;;;;;;5040213;28;20190;-78
2022/05/07 04:08:15;;;;;;;24.93;14.37;;;10.50;99.90;;;;;;5040081;28;20268;-79
2022/05/07 04:10:44;;;;;;;25.23;14.63;;;10.40;99.90;;;;;;5040004;28;20652;-79
2022/05/07 04:13:11;;;;;;;25.37;13.10;;;10.40;99.90;;;;;;5051654;22;20283;-82
2022/05/07 04:15:37;;;;;;;22.43;13.10;;;10.60;99.90;;;;;;5054620;28;20181;-82
2022/05/07 04:18:07;;;;;;;22.20;12.70;;;10.60;99.90;;;;;;5054553;28;20198;-81
2022/05/07 04:20:33;;;;;;;19.53;12.73;;;10.70;99.90;;;;;;5054329;28;20170;-81
2022/05/07 04:22:59;;;;;;;22.47;13.40;;;10.70;99.90;;;;;;5053925;28;20169;-81
2022/05/07 04:25:25;;;;;;;21.33;13.37;;;10.70;99.90;;;;;;5054031;28;20184;-82
2022/05/07 04:27:51;;;;;;;23.30;13.57;;;10.70;99.90;;;;;;5063128;22;20228;-85
2022/05/07 04:30:16;;;;;;;23.37;13.80;;;10.70;99.90;;;;;;5039594;28;20733;-85
2022/05/07 04:32:42;;;;;;;26.00;13.40;;;10.80;99.90;;;;;;5038972;28;20619;-85
2022/05/07 04:35:08;;;;;;;21.83;12.73;;;10.80;99.90;;;;;;5038860;28;20165;-85
2022/05/07 04:37:34;;;;;;;22.90;13.97;;;10.70;99.90;;;;;;5036786;28;20196;-84
2022/05/07 04:40:00;;;;;;;22.03;13.00;;;10.70;99.90;;;;;;5037155;28;20182;-84
2022/05/07 04:42:25;;;;;;;20.73;13.37;;;11.00;99.90;;;;;;5035864;28;20238;-85
2022/05/07 04:44:51;;;;;;;21.47;13.53;;;10.90;99.90;;;;;;5036381;28;20177;-85
2022/05/07 04:47:17;;;;;;;26.90;14.40;;;10.90;99.90;;;;;;5035410;28;20741;-85
2022/05/07 04:49:43;;;;;;;20.67;13.60;;;11.10;99.90;;;;;;5036303;28;20250;-84
2022/05/07 04:52:10;;;;;;;23.10;13.30;;;11.10;99.90;;;;;;5036173;28;20179;-85
2022/05/07 04:54:36;;;;;;;22.10;13.77;;;11.20;99.90;;;;;;5036299;28;20244;-85
2022/05/07 04:57:02;;;;;;;25.27;13.47;;;11.20;99.90;;;;;;5035728;28;20186;-85
2022/05/07 04:59:28;;;;;;;21.70;13.53;;;11.50;99.90;;;;;;5036109;28;20231;-85
2022/05/07 05:01:54;;;;;;;27.90;14.27;;;11.60;99.90;;;;;;5035867;28;20657;-85
2022/05/07 05:04:20;;;;;;;22.77;13.07;;;11.70;99.90;;;;;;5035972;28;20633;-85
2022/05/07 05:06:45;;;;;;;23.70;13.57;;;11.80;99.90;;;;;;5035664;28;20232;-85
2022/05/07 05:09:14;;;;;;;19.73;12.77;;;11.70;99.90;;;;;;5036913;28;20565;-85
2022/05/07 05:11:40;;;;;;;24.47;13.87;;;11.70;99.90;;;;;;5037336;28;20268;-85
2022/05/07 05:16:51;;;;;;;22.63;13.20;;;11.70;99.90;;;;;;5055431;28;20285;-84
2022/05/07 05:19:17;;;;;;;19.57;13.23;;;11.60;99.90;;;;;;5037427;28;20184;-85
2022/05/07 05:21:43;;;;;;;26.63;13.63;;;11.70;99.90;;;;;;5036743;28;20241;-85
2022/05/07 05:24:09;;;;;;;22.00;13.83;;;11.60;99.90;;;;;;5038261;28;20173;-85
2022/05/07 05:26:35;;;;;;;21.40;13.33;;;11.90;99.90;;;;;;5037035;28;20694;-85
2022/05/07 05:29:01;;;;;;;22.43;13.10;;;11.90;99.90;;;;;;5036927;28;20221;-85
2022/05/07 05:31:30;;;;;;;24.03;13.20;;;12.10;99.90;;;;;;5036265;28;20174;-85
2022/05/07 05:33:57;;;;;;;22.93;13.30;;;12.20;99.90;;;;;;5036536;28;20178;-85
2022/05/07 05:36:24;;;;;;;21.50;12.67;;;12.20;99.90;;;;;;5037313;28;20197;-84
2022/05/07 05:38:49;;;;;;;23.37;12.77;;;12.30;99.90;;;;;;5046201;28;20191;-85
2022/05/07 05:41:15;;;;;;;19.43;12.07;;;12.50;99.90;;;;;;5043995;28;20180;-85
2022/05/07 05:43:41;;;;;;;24.77;12.40;;;12.50;99.90;;;;;;5042652;28;20177;-85
2022/05/07 05:46:07;;;;;;;18.20;11.80;;;12.50;99.90;;;;;;5042549;28;20184;-85
2022/05/07 05:48:32;;;;;;;22.50;12.97;;;12.60;99.90;;;;;;5044002;28;20208;-86
2022/05/07 05:50:59;;;;;;;18.33;12.23;;;12.70;99.90;;;;;;5043755;28;20268;-85
2022/05/07 05:53:24;;;;;;;20.20;12.57;;;12.90;99.90;;;;;;5044181;28;20183;-85
2022/05/07 05:55:50;;;;;;;25.10;12.23;;;13.20;99.90;;;;;;5044886;28;20181;-85
2022/05/07 05:58:16;;;;;;;24.07;11.17;;;12.90;99.90;;;;;;5043638;28;20197;-86
2022/05/07 06:00:41;;;;;;;22.50;12.10;;;13.10;99.90;;;;;;5043026;28;20174;-86
2022/05/07 06:03:07;;;;;;;20.73;11.73;;;13.40;99.90;;;;;;5041902;28;20173;-86
2022/05/07 06:05:33;;;;;;;20.17;12.03;;;13.80;99.90;;;;;;5041694;28;20193;-86
2022/05/07 06:07:59;;;;;;;20.60;11.03;;;14.10;99.90;;;;;;5039240;28;20189;-86
2022/05/07 06:10:26;;;;;;;17.53;11.13;;;14.20;99.90;;;;;;5037918;28;20242;-83
2022/05/07 06:12:51;;;;;;;17.23;11.37;;;14.30;99.90;;;;;;5038826;28;20232;-83
2022/05/07 06:15:17;;;;;;;17.10;10.90;;;14.70;99.90;;;;;;5037459;28;20215;-83
2022/05/07 06:17:43;;;;;;;20.33;11.73;;;14.40;99.90;;;;;;5037897;28;20204;-83
2022/05/07 06:20:09;;;;;;;16.33;11.47;;;14.30;99.90;;;;;;5038696;28;20173;-85
2022/05/07 06:22:35;;;;;;;22.93;11.80;;;14.30;99.90;;;;;;5038274;28;20227;-85
2022/05/07 06:27:44;;;;;;;23.37;11.90;;;14.50;99.90;;;;;;5056502;28;20259;-85
2022/05/07 06:30:11;;;;;;;21.43;12.60;;;14.80;99.90;;;;;;5037905;28;20609;-85
2022/05/07 06:32:38;;;;;;;29.90;12.87;;;14.80;99.90;;;;;;5038063;28;20593;-85
2022/05/07 06:35:06;;;;;;;17.40;12.40;;;15.00;99.90;;;;;;5037583;28;20175;-85
2022/05/07 06:37:32;;;;;;;19.37;13.20;;;15.20;99.90;;;;;;5037925;28;20201;-85
2022/05/07 06:39:58;;;;;;;25.50;12.67;;;15.30;99.90;;;;;;5037832;28;20177;-85
2022/05/07 06:42:24;;;;;;;20.97;13.50;;;15.40;99.90;;;;;;5037271;28;20231;-85
2022/05/07 06:44:49;;;;;;;21.63;14.27;;;15.50;99.90;;;;;;5037645;28;20614;-86
2022/05/07 06:47:16;;;;;;;21.77;12.83;;;15.40;99.90;;;;;;5037939;28;20302;-85
2022/05/07 06:49:43;;;;;;;21.73;12.67;;;15.40;99.90;;;;;;5036765;28;20247;-85
2022/05/07 06:52:10;;;;;;;31.43;14.10;;;15.50;99.90;;;;;;5037076;28;20232;-84
2022/05/07 06:54:36;;;;;;;26.67;13.57;;;15.40;99.90;;;;;;5037216;28;20621;-84
2022/05/07 06:57:03;;;;;;;21.73;13.37;;;15.50;99.90;;;;;;5036557;28;20280;-85
2022/05/07 06:59:32;;;;;;;26.50;12.70;;;15.50;99.90;;;;;;5036665;28;20182;-85
2022/05/07 07:01:58;;;;;;;23.97;13.70;;;15.70;99.90;;;;;;5036781;28;20212;-83
2022/05/07 07:04:24;;;;;;;18.50;12.17;;;15.80;99.90;;;;;;5038443;28;20187;-83
2022/05/07 07:06:50;;;;;;;18.00;12.43;;;16.00;99.90;;;;;;5037792;28;20220;-84
2022/05/07 07:09:17;;;;;;;24.50;13.40;;;16.20;99.90;;;;;;5038014;28;20205;-83
2022/05/07 07:11:43;;;;;;;21.43;13.43;;;16.10;99.90;;;;;;5041467;28;20238;-83
2022/05/07 07:14:09;;;;;;;22.73;12.77;;;16.10;99.90;;;;;;5060393;28;20559;-84
2022/05/07 07:16:35;;;;;;;19.53;12.23;;;16.20;99.90;;;;;;5041737;28;20193;-84
2022/05/07 07:19:01;;;;;;;19.40;13.50;;;16.30;99.90;;;;;;5042881;28;20184;-84
2022/05/07 07:21:27;;;;;;;22.17;13.63;;;16.20;99.90;;;;;;5042331;28;20184;-82
2022/05/07 07:23:52;;;;;;;19.37;12.73;;;16.30;99.90;;;;;;5042937;28;20273;-84
2022/05/07 07:26:18;;;;;;;24.73;12.77;;;16.50;99.90;;;;;;5041138;28;20199;-84
2022/05/07 07:28:44;;;;;;;21.17;12.30;;;16.80;99.90;;;;;;5040314;28;20629;-84
2022/05/07 07:31:10;;;;;;;17.50;12.00;;;17.00;99.90;;;;;;5039240;28;20634;-84
2022/05/07 07:33:38;;;;;;;18.83;11.93;;;17.40;99.90;;;;;;5040253;28;20178;-84
2022/05/07 07:36:05;;;;;;;20.30;11.63;;;17.90;99.90;;;;;;5040358;28;20185;-84
2022/05/07 07:38:31;;;;;;;21.95;11.82;;;18.20;99.90;;;;;;5039415;28;20661;-84
2022/05/07 07:40:56;;;;;;;17.48;11.48;;;18.30;99.90;;;;;;5037683;28;20169;-84
2022/05/07 07:43:23;;;;;;;16.17;10.88;;;18.40;99.90;;;;;;5036502;28;20166;-83
2022/05/07 07:48:34;;;;;;;20.95;12.25;;;18.40;99.90;;;;;;5055434;28;20247;-82
2022/05/07 07:51:00;;;;;;;24.98;13.38;;;18.70;99.90;;;;;;5037268;28;20211;-83
2022/05/07 07:53:26;;;;;;;21.42;13.20;;;18.50;99.90;;;;;;5037183;28;20169;-83
2022/05/07 07:55:52;;;;;;;18.60;12.55;;;18.50;99.90;;;;;;5037023;28;20165;-83
2022/05/07 07:58:18;;;;;;;20.33;13.32;;;18.70;99.90;;;;;;5036979;28;20189;-82
2022/05/07 08:00:44;;;;;;;22.15;13.13;;;19.00;99.90;;;;;;5036817;28;20276;-83
2022/05/07 08:03:12;;;;;;;20.58;13.38;;;18.80;99.90;;;;;;5036953;28;20607;-83
2022/05/07 08:05:38;;;;;;;22.30;14.02;;;18.90;99.90;;;;;;5036934;28;20204;-84
2022/05/07 08:13:39;;;;;;;20.83;13.23;;;19.70;99.90;;;;;;5054556;28;20530;-85
2022/05/07 08:16:07;;;;;;;24.17;14.23;;;19.60;99.90;;;;;;5036331;28;20585;-85
2022/05/07 08:18:34;;;;;;;29.35;14.20;;;19.70;99.90;;;;;;5036480;28;20176;-84
2022/05/07 08:21:00;;;;;;;22.88;14.77;;;19.70;99.90;;;;;;5035640;28;20292;-85
2022/05/07 08:23:26;;;;;;;22.13;14.20;;;20.40;99.10;;;;;;5035927;28;20260;-85
2022/05/07 08:25:53;;;;;;;22.35;15.38;;;20.60;99.40;;;;;;5036837;28;20231;-85
2022/05/07 08:28:19;;;;;;;24.35;14.88;;;20.10;98.30;;;;;;5036307;28;20205;-85
2022/05/07 08:30:45;;;;;;;24.58;14.85;;;19.80;98.60;;;;;;5036133;28;20223;-86
2022/05/07 08:33:11;;;;;;;23.13;15.23;;;19.80;99.10;;;;;;5036047;28;20185;-86
2022/05/07 08:35:37;;;;;;;28.05;15.73;;;20.20;97.60;;;;;;5036297;28;20234;-86
2022/05/07 08:38:03;;;;;;;30.80;16.58;;;20.60;96.90;;;;;;5036431;28;20196;-86
2022/05/07 08:40:29;;;;;;;24.27;15.80;;;20.20;98.40;;;;;;5035988;28;20260;-86
2022/05/07 08:42:56;;;;;;;24.60;16.40;;;20.60;98.20;;;;;;5035241;28;20181;-85
2022/05/07 08:45:22;;;;;;;35.60;19.77;;;21.50;96.50;;;;;;5053846;28;20177;-86
2022/05/07 08:47:52;;;;;;;26.08;18.08;;;21.70;93.90;;;;;;5035290;28;20189;-85
2022/05/07 08:50:18;;;;;;;29.88;19.02;;;21.60;94.10;;;;;;5036048;28;20754;-86
2022/05/07 08:52:44;;;;;;;27.75;18.73;;;21.70;93.50;;;;;;5035731;28;20204;-86
2022/05/07 08:55:12;;;;;;;30.70;18.17;;;22.00;93.10;;;;;;5035900;28;20215;-87
2022/05/07 08:57:42;;;;;;;26.77;17.30;;;22.70;93.00;;;;;;5035978;28;20692;-85
2022/05/07 09:00:09;;;;;;;30.10;16.50;;;22.40;93.10;;;;;;5035862;28;20220;-86
2022/05/07 09:02:39;;;;;;;29.05;16.65;;;22.50;92.80;;;;;;5035660;28;20236;-85
2022/05/07 09:05:05;;;;;;;23.83;16.52;;;22.30;90.70;;;;;;5036261;28;20180;-85
2022/05/07 09:07:31;;;;;;;22.25;14.65;;;22.20;92.10;;;;;;5035683;28;20197;-86
2022/05/07 09:09:57;;;;;;;25.02;15.40;;;22.80;91.50;;;;;;5035148;28;20207;-85
2022/05/07 09:12:25;;;;;;;22.23;14.18;;;22.80;91.20;;;;;;5035312;28;20176;-86
2022/05/07 09:14:51;;;;;;;24.67;13.98;;;22.70;91.20;;;;;;5035351;28;20544;-85
2022/05/07 09:17:20;;;;;;;22.58;13.85;;;23.10;91.50;;;;;;5036063;28;20189;-85
2022/05/07 09:19:46;;;;;;;22.67;13.75;;;23.20;90.50;;;;;;5035868;28;20173;-85
2022/05/07 09:22:11;;;;;;;22.50;14.40;;;23.40;89.30;;;;;;5035815;28;20173;-85
2022/05/07 09:24:51;;;;;;;24.45;13.52;;;23.60;85.50;;;;;;5035242;28;20264;-85
2022/05/07 09:27:17;;;;;;;25.10;13.60;;;23.40;88.30;;;;;;5035599;28;20228;-85
2022/05/07 09:29:42;;;;;;;19.42;14.65;;;23.50;87.60;;;;;;5036253;28;20731;-85
2022/05/07 09:32:10;;;;;;;29.10;16.33;;;24.00;84.80;;;;;;5035142;28;20173;-85
2022/05/07 09:37:41;;;;;;;24.00;15.63;;;23.30;87.50;;;;;;5023290;28;20201;-85
2022/05/07 09:40:09;;;;;;;22.00;15.10;;;23.60;85.00;;;;;;5035330;28;20204;-85
2022/05/07 09:42:36;;;;;;;24.85;14.77;;;24.00;83.20;;;;;;5035168;28;20204;-87
2022/05/07 09:45:03;;;;;;;22.30;14.25;;;23.30;85.80;;;;;;5035143;28;20630;-85
2022/05/07 09:47:33;;;;;;;25.00;15.57;;;24.00;85.40;;;;;;5035249;28;20543;-85
2022/05/07 09:58:15;;;;;;;26.13;16.80;;;24.30;84.50;;;;;;5053487;28;20286;-85
2022/05/07 10:01:06;;;;;;;24.25;15.48;;;24.40;81.70;;;;;;5035291;28;20649;-85
2022/05/07 10:03:51;;;;;;;25.58;16.27;;;23.90;87.10;;;;;;5036598;28;20172;-86
2022/05/07 10:06:46;;;;;;;24.55;16.13;;;23.80;85.40;;;;;;5035850;28;20173;-86
2022/05/07 10:09:34;;;;;;;25.15;15.23;;;23.20;83.30;;;;;;5034484;28;20243;-85
2022/05/07 10:12:00;;;;;;;26.73;17.00;;;22.90;86.20;;;;;;5034617;28;20218;-86
2022/05/07 10:14:29;;;;;;;23.90;15.30;;;23.40;84.70;;;;;;5038201;22;20225;-81
2022/05/07 10:17:09;;;;;;;23.38;15.35;;;23.90;85.90;;;;;;5017672;28;20588;-80
2022/05/07 10:19:39;;;;;;;26.35;15.52;;;24.70;81.80;;;;;;5017928;28;20166;-80
2022/05/07 10:22:17;;;;;;;22.70;15.65;;;23.90;81.50;;;;;;5018294;28;20170;-80
2022/05/07 10:24:44;;;;;;;24.02;14.88;;;23.80;83.60;;;;;;5018169;28;20177;-80
2022/05/07 10:27:30;;;;;;;24.55;16.10;;;24.40;81.90;;;;;;5018197;28;20217;-81
2022/05/07 10:30:21;;;;;;;23.08;15.13;;;24.10;80.30;;;;;;5018506;28;20213;-80
2022/05/07 10:33:03;;;;;;;23.08;14.38;;;25.10;80.00;;;;;;5018419;28;20204;-80
2022/05/07 10:35:45;;;;;;;24.65;14.68;;;25.40;79.80;;;;;;5020674;28;20189;-81
2022/05/07 10:38:12;;;;;;;22.95;15.27;;;24.70;77.30;;;;;;5019662;28;20193;-80
2022/05/07 10:41:02;;;;;;;24.83;15.73;;;23.80;80.30;;;;;;5019987;28;20170;-81
2022/05/07 10:43:36;;;;;;;25.48;14.95;;;24.00;80.40;;;;;;5019098;28;20547;-78
2022/05/07 10:46:04;;;;;;;22.10;14.32;;;24.70;75.10;;;;;;5019761;28;20194;-78
2022/05/07 10:48:50;;;;;;;19.60;13.43;;;24.60;76.60;;;;;;5020825;28;20181;-78
2022/05/07 10:51:18;;;;;;;25.92;14.95;;;23.70;81.80;;;;;;5020573;28;20669;-78
2022/05/07 10:53:44;;;;;;;23.17;14.10;;;23.50;79.20;;;;;;5020686;28;20178;-80
2022/05/07 10:56:17;;;;;;;24.27;14.80;;;23.50;78.50;;;;;;5019900;28;20189;-79
2022/05/07 10:58:48;;;;;;;21.10;14.20;;;23.00;81.20;;;;;;5019703;28;20625;-79
2022/05/07 11:01:15;;;;;;;24.15;14.48;;;23.00;82.10;;;;;;5019413;28;20177;-80
2022/05/07 11:03:41;;;;;;;25.40;13.38;;;23.10;80.80;;;;;;5019786;28;20177;-81
2022/05/07 11:06:07;;;;;;;24.42;14.45;;;23.00;81.70;;;;;;5019156;28;20174;-80
2022/05/07 11:08:35;;;;;;;25.00;14.93;;;22.60;81.60;;;;;;5018803;28;20170;-80
2022/05/07 11:11:08;;;;;;;28.88;15.80;;;22.90;82.50;;;;;;5019193;28;20550;-79
2022/05/07 11:13:57;;;;;;;25.77;16.08;;;22.50;83.30;;;;;;5018604;28;20181;-80
2022/05/07 11:16:24;;;;;;;23.08;15.00;;;22.60;82.90;;;;;;5018819;28;20195;-78
2022/05/07 11:18:54;;;;;;;23.75;15.23;;;22.40;83.40;;;;;;5019815;28;20256;-79
2022/05/07 11:21:21;;;;;;;26.05;15.30;;;22.70;82.50;;;;;;5020493;28;20197;-81
2022/05/07 11:23:57;;;;;;;27.05;15.90;;;22.80;82.50;;;;;;5018873;28;20653;-81
2022/05/07 11:26:24;;;;;;;27.52;15.55;;;22.60;83.80;;;;;;5018916;28;20567;-79
2022/05/07 11:28:51;;;;;;;25.98;16.85;;;22.40;82.60;;;;;;5019626;28;20230;-78
2022/05/07 11:31:29;;;;;;;32.30;15.38;;;22.50;82.90;;;;;;5019078;28;20650;-81
2022/05/07 11:34:12;;;;;;;28.08;17.05;;;22.30;83.10;;;;;;5018570;28;20178;-81
2022/05/07 11:36:38;;;;;;;24.45;15.65;;;22.40;83.50;;;;;;5018581;28;20186;-80
2022/05/07 11:39:07;;;;;;;30.63;16.48;;;22.60;82.80;;;;;;5018620;28;20184;-80
2022/05/07 11:41:34;;;;;;;27.85;16.13;;;22.50;81.50;;;;;;5018354;28;20186;-79
2022/05/07 11:46:54;;;;;;;25.60;16.77;;;22.40;84.50;;;;;;5036524;28;20689;-78
2022/05/07 11:49:56;;;;;;;26.00;16.35;;;22.40;84.20;;;;;;5018601;28;20189;-80
2022/05/07 11:52:27;;;;;;;24.63;16.23;;;22.60;84.20;;;;;;5017746;28;20170;-79
2022/05/07 11:54:53;;;;;;;25.13;15.65;;;22.50;82.80;;;;;;5018245;28;20757;-78
2022/05/07 11:57:32;;;;;;;24.77;15.07;;;22.70;82.80;;;;;;5017791;28;20233;-79
2022/05/07 12:00:15;;;;;;;22.90;14.98;;;22.50;81.80;;;;;;5018211;28;20173;-80
2022/05/07 12:02:49;;;;;;;25.38;14.70;;;22.70;81.70;;;;;;5018465;28;20178;-80
2022/05/07 12:05:14;;;;;;;21.15;14.35;;;22.50;82.10;;;;;;5018529;28;20252;-79
2022/05/07 12:07:41;;;;;;;21.33;13.68;;;22.30;84.80;;;;;;5018570;28;20198;-81
2022/05/07 12:10:07;;;;;;;27.15;14.15;;;22.20;82.60;;;;;;5018520;28;20229;-82
2022/05/07 12:12:33;;;;;;;23.73;14.85;;;22.20;82.90;;;;;;5017754;28;20170;-81
2022/05/07 12:14:59;;;;;;;21.05;13.25;;;22.40;82.80;;;;;;5017469;28;20682;-79
2022/05/07 12:20:10;;;;;;;21.00;13.27;;;22.40;83.10;;;;;;5035672;28;20181;-81
2022/05/07 12:30:48;;;;;;;19.75;11.52;;;23.70;80.10;;;;;;5035926;28;20205;-80
2022/05/07 12:33:14;;;;;;;20.08;11.75;;;23.80;79.20;;;;;;5017006;28;20657;-81
2022/05/07 12:35:40;;;;;;;19.38;11.27;;;23.60;78.20;;;;;;5017256;28;20178;-81
2022/05/07 12:38:05;;;;;;;18.55;10.40;;;23.50;79.70;;;;;;5017129;28;20194;-81
2022/05/07 12:40:31;;;;;;;17.70;10.27;;;23.40;80.10;;;;;;5016507;28;20252;-79
2022/05/07 12:42:58;;;;;;;17.75;11.75;;;23.00;79.00;;;;;;5014729;28;20180;-78
2022/05/07 12:45:25;;;;;;;19.92;12.63;;;22.70;80.20;;;;;;5016747;28;20269;-79
2022/05/07 12:47:50;;;;;;;21.88;13.32;;;22.50;81.90;;;;;;5015906;28;20725;-79
2022/05/07 12:50:16;;;;;;;26.95;13.27;;;22.20;84.40;;;;;;5034821;28;20297;-78
2022/05/07 12:52:42;;;;;;;24.08;13.25;;;22.30;85.10;;;;;;5016956;28;20170;-80
2022/05/07 12:55:08;;;;;;;20.52;12.68;;;22.40;83.60;;;;;;5017156;28;20170;-80
2022/05/07 12:57:34;;;;;;;20.08;12.07;;;22.40;83.20;;;;;;5016127;28;20657;-80
2022/05/07 13:00:00;;;;;;;20.33;12.98;;;22.40;83.80;;;;;;5017246;28;20184;-79
2022/05/07 13:02:25;;;;;;;21.35;12.80;;;22.10;82.00;;;;;;5017180;28;20182;-80
2022/05/07 13:04:51;;;;;;;22.95;12.73;;;21.90;83.40;;;;;;5016639;28;20193;-79
2022/05/07 13:07:17;;;;;;;15.57;10.98;;;22.00;83.30;;;;;;5016422;28;20194;-81
2022/05/07 13:09:42;;;;;;;19.13;11.63;;;22.30;84.20;;;;;;5017180;28;20789;-80
2022/05/07 13:12:13;;;;;;;20.73;11.60;;;22.30;83.10;;;;;;5017614;28;20219;-80